Time;durP1;ratioP1;P1;durP2;ratioP2;P2;SDS_P1;SDS_P2;PMS_P1;PMS_P2;Temp;Humidity;BMP_temperature;BMP_pressure;BME280_temperature;BME280_humidity;BME280_pressure;Samples;Min_cycle;Max_cycle;Signal;HPM_P1;HPM_P2
2022/01/04 00:02:46;;;;;;;15.80;8.70;;;;;;;7.84;68.83;99343.73;109996;1276;22342;-82
2022/01/04 00:05:40;;;;;;;14.20;8.20;;;;;;;7.84;68.78;99341.87;109955;1278;21934;-81
2022/01/04 00:08:35;;;;;;;15.80;8.30;;;;;;;7.84;68.80;99340.82;110003;1276;21843;-82
2022/01/04 00:11:31;;;;;;;13.90;8.70;;;;;;;7.77;68.56;99336.65;109992;1276;21990;-82
2022/01/04 00:14:48;;;;;;;14.30;8.50;;;;;;;7.71;68.42;99336.27;110026;1276;22011;-82
2022/01/04 00:17:50;;;;;;;15.90;8.70;;;;;;;7.70;68.62;99341.01;109989;1279;21906;-84
2022/01/04 00:20:45;;;;;;;16.30;8.80;;;;;;;7.70;68.66;99334.83;109885;1282;22340;-83
2022/01/04 00:23:53;;;;;;;15.00;7.40;;;;;;;7.72;68.68;99332.35;109783;1282;21925;-82
2022/01/04 00:26:51;;;;;;;13.10;8.30;;;;;;;7.73;68.75;99331.65;109836;1282;21839;-82
2022/01/04 00:29:45;;;;;;;17.40;8.30;;;;;;;7.76;68.67;99323.16;109932;1279;21857;-84
2022/01/04 00:32:30;;;;;;;17.10;8.90;;;;;;;7.72;68.72;99323.77;109943;1279;22212;-84
2022/01/04 00:35:31;;;;;;;16.50;8.50;;;;;;;7.74;68.79;99320.24;109945;1279;21956;-84
2022/01/04 00:38:53;;;;;;;13.90;8.60;;;;;;;7.75;68.84;99322.67;109922;1280;21899;-85
2022/01/04 00:41:40;;;;;;;13.30;8.90;;;;;;;7.72;68.81;99315.63;109969;1279;21850;-84
2022/01/04 00:45:04;;;;;;;;;;;;;;;;;;;;;
2022/01/04 00:51:22;;;;;;;18.10;9.60;;;;;;;7.76;69.09;99303.43;109755;1282;22273;-83
2022/01/04 00:54:40;;;;;;;15.30;8.60;;;;;;;7.79;68.96;99303.66;109964;1281;22053;-84
2022/01/04 00:57:24;;;;;;;;;;;;;;;7.84;69.15;99310.45;109910;1282;22662;-83
2022/01/04 01:00:57;;;;;;;16.20;8.60;;;;;;;7.77;69.31;99303.36;109609;1286;21859;-84
2022/01/04 01:04:26;;;;;;;13.40;7.30;;;;;;;7.81;69.25;99302.18;109724;1285;21897;-83
2022/01/04 01:07:17;;;;;;;13.80;7.80;;;;;;;7.78;69.09;99301.48;109708;1285;22290;-81
2022/01/04 01:10:57;;;;;;;15.20;8.30;;;;;;;7.73;69.14;99290.72;109886;1282;21947;-82
2022/01/04 01:13:39;;;;;;;18.90;8.60;;;;;;;7.72;69.18;99292.23;109908;1282;21836;-84
2022/01/04 01:16:43;;;;;;;12.40;7.60;;;;;;;7.72;69.23;99284.90;109940;1282;21861;-83
2022/01/04 01:19:52;;;;;;;15.80;7.50;;;;;;;7.72;69.14;99280.80;109983;1276;21916;-84
2022/01/04 01:23:03;;;;;;;12.90;7.00;;;;;;;7.71;69.13;99277.74;110057;1276;21919;-83
2022/01/04 01:25:55;;;;;;;13.30;7.00;;;;;;;7.70;69.11;99269.61;110131;1276;21884;-85
2022/01/04 01:29:07;;;;;;;14.40;7.20;;;;;;;7.72;69.15;99266.11;110044;1276;21981;-85
2022/01/04 01:32:37;;;;;;;15.30;7.90;;;;;;;7.70;69.00;99259.98;110148;1275;21927;-84
2022/01/04 01:35:25;;;;;;;12.30;7.30;;;;;;;7.69;69.15;99260.31;110023;1276;22323;-83
2022/01/04 01:38:19;;;;;;;;;;;;;;;;;;;;;
2022/01/04 01:41:31;;;;;;;15.80;8.20;;;;;;;7.72;69.32;99258.02;110097;1276;22387;-84
2022/01/04 01:44:31;;;;;;;14.90;7.90;;;;;;;7.74;69.49;99259.52;110036;1276;22318;-82
2022/01/04 01:47:38;;;;;;;13.40;7.00;;;;;;;7.81;69.56;99259.95;110106;1276;21874;-82
2022/01/04 01:51:07;;;;;;;13.50;7.80;;;;;;;7.82;69.51;99254.22;110064;1275;21928;-84
2022/01/04 01:54:25;;;;;;;13.70;8.40;;;;;;;7.84;69.47;99251.26;110046;1276;22423;-83
2022/01/04 01:57:26;;;;;;;13.50;7.60;;;;;;;7.85;69.49;99247.44;110041;1276;21958;-83
2022/01/04 02:00:27;;;;;;;12.70;7.50;;;;;;;7.86;69.45;99246.40;110106;1276;22529;-82
2022/01/04 02:03:16;;;;;;;13.00;7.40;;;;;;;7.87;69.48;99245.13;110093;1275;21904;-83
2022/01/04 02:06:01;;;;;;;12.30;7.10;;;;;;;7.86;69.30;99242.56;110110;1275;21931;-82
2022/01/04 02:08:37;;;;;;;15.10;7.40;;;;;;;7.85;69.40;99235.51;110095;1275;21986;-81
2022/01/04 02:11:11;;;;;;;14.00;7.40;;;;;;;7.86;69.52;99233.17;110092;1276;22424;-82
2022/01/04 02:14:03;;;;;;;14.20;7.10;;;;;;;7.85;69.50;99228.67;110030;1276;21931;-83
2022/01/04 02:17:00;;;;;;;15.60;8.50;;;;;;;7.85;69.63;99225.38;110115;1276;22292;-82
2022/01/04 02:20:06;;;;;;;;;;;;;;;;;;;;;
2022/01/04 02:23:02;;;;;;;12.30;7.50;;;;;;;7.79;69.52;99219.15;110100;1276;21932;-83
2022/01/04 02:26:12;;;;;;;13.20;7.20;;;;;;;7.78;69.42;99217.72;109941;1279;21847;-82
2022/01/04 02:30:34;;;;;;;9.90;6.70;;;;;;;7.68;69.57;99211.65;109945;1280;21820;-84
2022/01/04 02:32:59;;;;;;;12.70;6.40;;;;;;;7.63;69.89;99211.99;109724;1285;21825;-83
2022/01/04 02:35:34;;;;;;;15.70;7.10;;;;;;;7.63;70.09;99206.86;109131;1286;21993;-83
2022/01/04 02:38:33;;;;;;;13.00;6.90;;;;;;;7.64;70.08;99207.13;109180;1285;22304;-83
2022/01/04 02:41:26;;;;;;;11.80;7.50;;;;;;;7.62;70.13;99206.23;109397;1288;21811;-83
2022/01/04 02:44:05;;;;;;;10.80;7.00;;;;;;;7.61;70.26;99196.83;109399;1285;21840;-83
2022/01/04 02:46:45;;;;;;;13.40;7.00;;;;;;;7.60;70.27;99197.77;109193;1286;21874;-84
2022/01/04 02:49:29;;;;;;;11.90;6.60;;;;;;;7.60;70.38;99193.38;109497;1285;21844;-83
2022/01/04 02:52:00;;;;;;;15.60;8.10;;;;;;;7.57;70.22;99187.39;109164;1286;22349;-82
2022/01/04 02:54:43;;;;;;;11.70;8.90;;;;;;;7.52;70.30;99183.00;108796;1290;21979;-83
2022/01/04 02:57:38;;;;;;;16.40;10.30;;;;;;;7.51;70.52;99178.73;108957;1289;22305;-84
2022/01/04 03:00:18;;;;;;;11.50;9.30;;;;;;;7.53;70.71;99174.03;109426;1287;21864;-85
2022/01/04 03:02:58;;;;;;;11.30;7.30;;;;;;;7.55;70.73;99167.48;109099;1289;21832;-85
2022/01/04 03:05:35;;;;;;;9.00;7.00;;;;;;;7.56;70.78;99163.36;109094;1289;21859;-85
2022/01/04 03:08:09;;;;;;;11.50;5.90;;;;;;;7.59;70.92;99158.28;109398;1281;21926;-84
2022/01/04 03:10:40;;;;;;;10.30;5.80;;;;;;;7.58;70.83;99149.64;109949;1279;21891;-85
2022/01/04 03:13:16;;;;;;;8.40;5.00;;;;;;;7.56;70.82;99148.98;109829;1281;21880;-82
2022/01/04 03:16:27;;;;;;;8.40;5.00;;;;;;;7.55;70.93;99145.01;109936;1281;22063;-81
2022/01/04 03:19:09;;;;;;;9.00;5.50;;;;;;;7.54;70.94;99145.66;109962;1276;21928;-82
2022/01/04 03:21:52;;;;;;;9.10;5.80;;;;;;;7.54;70.91;99139.36;110033;1276;21879;-83
2022/01/04 03:24:35;;;;;;;10.70;5.90;;;;;;;7.49;70.70;99132.05;110047;1276;22383;-86
2022/01/04 03:27:12;;;;;;;14.80;7.30;;;;;;;7.42;70.66;99127.48;110026;1276;21960;-84
2022/01/04 03:29:47;;;;;;;10.10;6.00;;;;;;;7.35;70.62;99126.48;110041;1276;21843;-84
2022/01/04 03:32:58;;;;;;;;;;;;;;;;;;;;;
2022/01/04 03:36:26;;;;;;;;;;;;;;;;;;;;;
2022/01/04 03:39:09;;;;;;;;;;;;;;;;;;;;;
2022/01/04 03:42:13;;;;;;;13.50;7.30;;;;;;;7.09;71.28;99119.20;110618;1270;21942;-86
2022/01/04 03:45:28;;;;;;;10.90;7.00;;;;;;;7.06;71.28;99119.39;110702;1268;21945;-86
2022/01/04 03:48:23;;;;;;;10.00;6.50;;;;;;;6.99;71.52;99116.39;110711;1269;21820;-84
2022/01/04 03:50:59;;;;;;;9.20;5.60;;;;;;;6.97;71.72;99108.95;110637;1266;21967;-85
2022/01/04 03:54:09;;;;;;;;;;;;;;;;;;;;;
2022/01/04 03:57:20;;;;;;;11.50;5.30;;;;;;;6.90;72.16;99090.75;110679;1270;21905;-85
2022/01/04 04:00:35;;;;;;;9.90;5.70;;;;;;;6.87;72.22;99084.36;110538;1270;21857;-85
2022/01/04 04:03:30;;;;;;;8.60;5.40;;;;;;;6.88;72.47;99073.45;110112;1275;21933;-85
2022/01/04 04:06:08;;;;;;;7.30;4.80;;;;;;;6.90;72.60;99069.23;109791;1283;22271;-82
2022/01/04 04:08:43;;;;;;;8.50;5.00;;;;;;;6.93;72.64;99068.90;109762;1284;21871;-82
2022/01/04 04:11:20;;;;;;;5.70;4.00;;;;;;;6.93;72.78;99064.96;109692;1284;21899;-81
2022/01/04 04:13:54;;;;;;;7.30;4.60;;;;;;;6.98;72.78;99066.66;109675;1283;21813;-82
2022/01/04 04:16:25;;;;;;;6.00;4.40;;;;;;;7.02;72.81;99067.33;109473;1283;21961;-81
2022/01/04 04:19:00;;;;;;;5.60;4.10;;;;;;;7.07;72.93;99068.98;109306;1289;21882;-82
2022/01/04 04:21:31;;;;;;;6.80;4.60;;;;;;;7.10;72.73;99071.30;109186;1289;21933;-82
2022/01/04 04:24:11;;;;;;;8.80;5.10;;;;;;;7.11;72.74;99072.70;108956;1288;21847;-81
2022/01/04 04:26:50;;;;;;;10.20;6.00;;;;;;;7.14;72.75;99067.33;109095;1289;21938;-84
2022/01/04 04:29:29;;;;;;;;;;;;;;;7.18;72.77;99072.31;109240;1289;21952;-84
2022/01/04 04:32:11;;;;;;;11.70;8.50;;;;;;;7.10;72.80;99062.90;109537;1289;21819;-84
2022/01/04 04:34:55;;;;;;;13.70;9.30;;;;;;;7.07;72.74;99062.30;109232;1289;21936;-85
2022/01/04 04:37:44;;;;;;;15.60;10.80;;;;;;;7.07;72.71;99060.60;110641;1269;21929;-84
2022/01/04 04:40:29;;;;;;;15.10;9.20;;;;;;;7.07;72.81;99061.58;110209;1269;21910;-84
2022/01/04 04:43:08;;;;;;;16.10;10.20;;;;;;;7.09;72.84;99059.81;110112;1275;22432;-84
2022/01/04 04:45:47;;;;;;;13.50;9.70;;;;;;;7.09;72.80;99056.50;110226;1275;21995;-84
2022/01/04 04:48:25;;;;;;;19.80;13.30;;;;;;;7.10;72.91;99057.08;110217;1275;21968;-83
2022/01/04 04:51:04;;;;;;;17.60;11.40;;;;;;;7.12;72.99;99053.52;110049;1275;21914;-82
2022/01/04 04:53:38;;;;;;;25.20;14.70;;;;;;;7.11;72.88;99049.59;110147;1275;21976;-84
2022/01/04 04:56:16;;;;;;;33.70;17.60;;;;;;;7.11;72.87;99045.95;110139;1275;22007;-80
2022/01/04 04:58:46;;;;;;;31.10;16.90;;;;;;;7.10;72.99;99040.61;109980;1279;21897;-79
2022/01/04 05:01:27;;;;;;;26.10;13.50;;;;;;;7.10;72.96;99041.33;109998;1275;21922;-84
2022/01/04 05:04:09;;;;;;;24.10;13.70;;;;;;;7.08;72.83;99042.63;110024;1276;21970;-85
2022/01/04 05:06:50;;;;;;;17.80;10.20;;;;;;;7.04;72.82;99035.21;110038;1275;21974;-84
2022/01/04 05:09:31;;;;;;;18.40;10.40;;;;;;;7.01;72.93;99031.50;110013;1276;21971;-84
2022/01/04 05:12:05;;;;;;;14.40;8.70;;;;;;;6.94;72.99;99024.83;110026;1275;22032;-83
2022/01/04 05:14:47;;;;;;;13.90;8.00;;;;;;;6.87;73.17;99020.48;110027;1275;22035;-83
2022/01/04 05:17:34;;;;;;;14.30;8.70;;;;;;;6.85;73.28;99019.67;110022;1276;21927;-84
2022/01/04 05:20:05;;;;;;;13.10;7.70;;;;;;;6.88;73.45;99025.98;110025;1275;21921;-84
2022/01/04 05:22:45;;;;;;;14.10;8.10;;;;;;;6.85;73.48;99014.95;110033;1272;21958;-83
2022/01/04 05:25:26;;;;;;;13.30;8.70;;;;;;;6.82;73.46;99015.11;110187;1270;21938;-85
2022/01/04 05:28:10;;;;;;;13.90;8.20;;;;;;;6.81;73.53;99016.95;110239;1270;21930;-85
2022/01/04 05:30:54;;;;;;;16.10;9.90;;;;;;;6.78;73.56;99019.44;110160;1273;22461;-85
2022/01/04 05:33:44;;;;;;;;;;;;;;;;;;;;;
2022/01/04 05:36:23;;;;;;;19.20;12.70;;;;;;;6.83;73.89;99014.48;110164;1273;21881;-85
2022/01/04 05:39:11;;;;;;;19.90;11.40;;;;;;;6.89;73.94;99008.30;110067;1273;21897;-84
2022/01/04 05:41:54;;;;;;;15.20;10.70;;;;;;;6.93;73.78;99009.51;110052;1273;21860;-84
2022/01/04 05:44:25;;;;;;;15.80;10.20;;;;;;;6.94;73.72;99011.98;110091;1273;21947;-81
2022/01/04 05:46:59;;;;;;;16.60;11.90;;;;;;;6.95;73.62;99008.60;110170;1273;21927;-82
2022/01/04 05:49:43;;;;;;;;;;;;;;;6.98;73.74;99005.02;110226;1270;21956;-82
2022/01/04 05:52:18;;;;;;;16.40;11.30;;;;;;;6.92;73.77;98999.98;110035;1273;21986;-82
2022/01/04 05:54:52;;;;;;;15.80;9.90;;;;;;;6.91;73.80;98990.81;110217;1273;21920;-82
2022/01/04 05:57:33;;;;;;;11.90;9.00;;;;;;;6.95;73.85;98986.64;110223;1273;21912;-83
2022/01/04 06:00:09;;;;;;;14.20;10.10;;;;;;;7.02;73.71;98985.53;110208;1273;21931;-83
2022/01/04 06:02:52;;;;;;;12.00;10.10;;;;;;;6.98;73.67;98973.00;110185;1273;21899;-83
2022/01/04 06:05:26;;;;;;;10.80;9.40;;;;;;;7.01;73.79;98971.63;109999;1277;21962;-83
2022/01/04 06:08:11;;;;;;;10.30;8.20;;;;;;;7.05;73.71;98967.52;109931;1282;21868;-83
2022/01/04 06:10:52;;;;;;;11.10;7.60;;;;;;;7.11;73.67;98965.92;109980;1279;22006;-84
2022/01/04 06:16:27;;;;;;;10.80;8.30;;;;;;;7.07;73.46;98960.25;109809;1282;22327;-84
2022/01/04 06:18:57;;;;;;;30.90;21.10;;;;;;;7.12;73.59;98961.77;109905;1282;21880;-83
2022/01/04 06:21:35;;;;;;;14.30;10.60;;;;;;;7.08;73.49;98950.75;109901;1282;21854;-83
2022/01/04 06:24:08;;;;;;;16.20;12.10;;;;;;;7.16;73.78;98960.85;109870;1278;22012;-83
2022/01/04 06:26:40;;;;;;;11.10;7.70;;;;;;;7.17;73.66;98953.99;110076;1274;21990;-83
2022/01/04 06:29:11;;;;;;;12.50;8.70;;;;;;;7.17;73.47;98952.39;110128;1276;21852;-84
2022/01/04 06:31:50;;;;;;;9.70;8.00;;;;;;;7.18;73.53;98954.23;110282;1270;21992;-85
2022/01/04 06:34:38;;;;;;;12.90;9.00;;;;;;;7.18;73.35;98947.80;110328;1270;21913;-86
2022/01/04 06:37:17;;;;;;;14.10;9.10;;;;;;;7.19;73.51;98946.31;110275;1270;21916;-85
2022/01/04 06:40:01;;;;;;;13.50;11.50;;;;;;;7.23;73.70;98946.63;110589;1270;22430;-84
2022/01/04 06:42:35;;;;;;;15.50;10.30;;;;;;;7.28;73.64;98948.11;110429;1270;21970;-84
2022/01/04 06:45:06;;;;;;;11.80;10.40;;;;;;;7.30;73.46;98945.87;110227;1270;21921;-84
2022/01/04 06:47:41;;;;;;;11.70;9.20;;;;;;;7.32;73.48;98939.60;110390;1269;21930;-84
2022/01/04 06:50:20;;;;;;;12.40;8.40;;;;;;;7.36;73.47;98939.65;110296;1270;21948;-85
2022/01/04 06:53:01;;;;;;;14.00;10.10;;;;;;;7.38;73.33;98936.48;110541;1270;21828;-84
2022/01/04 06:55:37;;;;;;;14.70;10.20;;;;;;;7.34;73.17;98933.77;110372;1270;22449;-85
2022/01/04 06:58:22;;;;;;;14.60;9.40;;;;;;;7.32;73.22;98927.25;110376;1270;21909;-85
2022/01/04 07:01:09;;;;;;;20.20;10.40;;;;;;;7.28;73.14;98925.88;110593;1269;21915;-83
2022/01/04 07:03:42;;;;;;;16.10;8.40;;;;;;;7.25;73.37;98925.89;110338;1269;21975;-82
2022/01/04 07:06:18;;;;;;;17.40;8.70;;;;;;;7.24;73.44;98921.29;110185;1270;22270;-84
2022/01/04 07:08:54;;;;;;;17.50;11.60;;;;;;;7.23;73.49;98916.42;110119;1275;21910;-83
2022/01/04 07:11:26;;;;;;;12.70;7.50;;;;;;;7.22;73.54;98916.33;110032;1276;21919;-82
2022/01/04 07:14:00;;;;;;;11.40;8.50;;;;;;;7.20;73.73;98912.54;110034;1276;21988;-83
2022/01/04 07:16:37;;;;;;;12.50;8.30;;;;;;;7.21;73.86;98907.64;109901;1279;21959;-82
2022/01/04 07:19:15;;;;;;;11.20;7.90;;;;;;;7.25;74.01;98904.58;109774;1282;21856;-83
2022/01/04 07:21:45;;;;;;;13.40;9.00;;;;;;;7.22;73.87;98903.04;109756;1283;21882;-83
2022/01/04 07:24:27;;;;;;;13.50;9.70;;;;;;;7.18;73.97;98894.78;109712;1284;21904;-83
2022/01/04 07:27:00;;;;;;;13.10;11.00;;;;;;;7.15;74.25;98891.07;109897;1281;21920;-81
2022/01/04 07:29:48;;;;;;;17.40;13.70;;;;;;;7.09;74.30;98887.39;109989;1260;22414;-84
2022/01/04 07:32:31;;;;;;;16.90;13.20;;;;;;;7.05;74.49;98884.96;110806;1260;22783;-80
2022/01/04 07:35:02;;;;;;;17.00;11.90;;;;;;;7.07;74.86;98882.00;110238;1272;21938;-82
2022/01/04 07:37:32;;;;;;;15.70;14.00;;;;;;;7.06;74.95;98877.05;109932;1278;21998;-82
2022/01/04 07:40:07;;;;;;;16.60;14.90;;;;;;;7.08;75.03;98880.87;109916;1282;22307;-82
2022/01/04 07:42:53;;;;;;;15.10;12.70;;;;;;;7.10;75.28;98873.46;109574;1283;21831;-84
2022/01/04 07:45:28;;;;;;;11.70;9.20;;;;;;;7.17;75.60;98868.77;109910;1282;21959;-81
2022/01/04 07:48:12;;;;;;;13.60;8.10;;;;;;;7.22;75.49;98857.48;109821;1283;21941;-81
2022/01/04 07:51:02;;;;;;;16.10;10.10;;;;;;;7.22;75.39;98849.30;109878;1282;21897;-78
2022/01/04 07:53:32;;;;;;;16.80;11.50;;;;;;;7.17;75.45;98836.42;109862;1279;21824;-78
2022/01/04 07:56:06;;;;;;;15.10;12.50;;;;;;;7.15;75.54;98830.83;109926;1280;22242;-78
2022/01/04 07:58:36;;;;;;;18.30;16.40;;;;;;;7.11;75.67;98830.77;109926;1279;21848;-78
2022/01/04 08:01:06;;;;;;;23.90;21.40;;;;;;;7.13;75.86;98827.33;109931;1280;21821;-78
2022/01/04 08:03:39;;;;;;;23.80;21.50;;;;;;;7.16;75.96;98824.38;109972;1279;22323;-78
2022/01/04 08:06:09;;;;;;;23.70;19.90;;;;;;;7.17;75.92;98828.91;110185;1276;21981;-79
2022/01/04 08:08:39;;;;;;;22.70;17.20;;;;;;;7.19;76.15;98825.88;110013;1276;21946;-79
2022/01/04 08:11:09;;;;;;;19.30;16.30;;;;;;;7.23;76.15;98822.56;110094;1276;22355;-79
2022/01/04 08:13:39;;;;;;;23.70;17.90;;;;;;;7.25;76.33;98811.10;110045;1274;21986;-78
2022/01/04 08:16:09;;;;;;;30.90;27.40;;;;;;;7.29;76.35;98802.88;110047;1273;22232;-79
2022/01/04 08:18:39;;;;;;;25.70;19.40;;;;;;;7.30;76.24;98797.51;110004;1276;22301;-78
2022/01/04 08:21:28;;;;;;;20.50;17.00;;;;;;;7.29;76.21;98794.84;110150;1276;21908;-78
2022/01/04 08:23:58;;;;;;;23.60;17.80;;;;;;;7.27;76.28;98787.38;110241;1274;21941;-77
2022/01/04 08:26:29;;;;;;;22.20;17.10;;;;;;;7.28;76.41;98783.74;109942;1278;21808;-79
2022/01/04 08:29:02;;;;;;;22.10;16.60;;;;;;;7.32;76.55;98772.58;109793;1282;22324;-78
2022/01/04 08:31:32;;;;;;;41.60;30.20;;;;;;;7.36;76.51;98766.94;109797;1282;21841;-78
2022/01/04 08:34:05;;;;;;;46.80;38.30;;;;;;;7.37;76.50;98762.02;109230;1286;21894;-83
2022/01/04 08:36:37;;;;;;;38.50;33.90;;;;;;;7.42;76.76;98754.93;109694;1286;21896;-80
2022/01/04 08:39:14;;;;;;;37.60;31.10;;;;;;;7.47;76.71;98748.30;109740;1282;22303;-79
2022/01/04 08:41:49;;;;;;;42.30;32.00;;;;;;;7.53;76.41;98750.14;109813;1283;21910;-79
2022/01/04 08:44:18;;;;;;;39.90;31.00;;;;;;;7.48;76.33;98745.86;109783;1279;21951;-82
2022/01/04 08:46:52;;;;;;;42.50;32.60;;;;;;;7.48;76.33;98746.63;109920;1279;21893;-81
2022/01/04 08:49:25;;;;;;;35.90;29.20;;;;;;;7.47;76.46;98749.36;109767;1284;21971;-80
2022/01/04 08:51:55;;;;;;;40.50;32.30;;;;;;;7.53;76.72;98752.86;109847;1279;21822;-81
2022/01/04 08:54:25;;;;;;;42.90;32.40;;;;;;;7.57;76.59;98754.99;110014;1276;21973;-80
2022/01/04 08:56:55;;;;;;;39.20;33.20;;;;;;;7.64;76.69;98751.70;110169;1273;21870;-79
2022/01/04 08:59:27;;;;;;;39.30;35.20;;;;;;;7.69;76.78;98746.46;110085;1276;21981;-79
2022/01/04 09:01:56;;;;;;;50.30;39.60;;;;;;;7.79;76.62;98744.23;110090;1276;22041;-78
2022/01/04 09:04:27;;;;;;;64.60;47.20;;;;;;;7.79;76.42;98740.01;110072;1273;21827;-78
2022/01/04 09:06:57;;;;;;;41.00;36.50;;;;;;;7.82;76.18;98738.92;110140;1273;21962;-79
2022/01/04 09:09:27;;;;;;;71.90;64.20;;;;;;;7.82;75.88;98740.75;110089;1272;21949;-79
2022/01/04 09:12:19;;;;;;;64.30;51.60;;;;;;;7.85;75.92;98744.23;110137;1273;22013;-79
2022/01/04 09:15:03;;;;;;;44.30;38.60;;;;;;;7.86;76.03;98736.93;110091;1276;22002;-78
2022/01/04 09:20:21;;;;;;;44.60;39.90;;;;;;;7.91;75.85;98739.54;109944;1279;22299;-77
2022/01/04 09:22:51;;;;;;;49.30;41.40;;;;;;;7.90;75.66;98735.31;109961;1279;21889;-78
2022/01/04 09:25:43;;;;;;;46.90;41.30;;;;;;;7.94;75.83;98730.13;109939;1279;21951;-79
2022/01/04 09:28:19;;;;;;;51.10;40.20;;;;;;;7.97;75.67;98723.88;109773;1284;21980;-80
2022/01/04 09:30:51;;;;;;;38.50;34.20;;;;;;;7.97;75.49;98727.23;109724;1283;22365;-79
2022/01/04 09:33:21;;;;;;;42.10;35.20;;;;;;;7.97;75.26;98720.60;109863;1279;21967;-80
2022/01/04 09:35:53;;;;;;;45.50;37.40;;;;;;;7.97;75.57;98706.20;110000;1273;22411;-79
2022/01/04 09:38:23;;;;;;;41.10;36.50;;;;;;;8.01;75.58;98705.38;110134;1273;22673;-79
2022/01/04 09:40:55;;;;;;;46.70;38.90;;;;;;;8.06;75.61;98701.13;110020;1276;21990;-79
2022/01/04 09:43:29;;;;;;;47.10;38.20;;;;;;;8.16;75.63;98699.73;110031;1276;22252;-79
2022/01/04 09:46:00;;;;;;;40.70;33.50;;;;;;;8.14;75.38;98696.65;110018;1273;22399;-79
2022/01/04 09:48:30;;;;;;;41.00;34.90;;;;;;;8.14;75.30;98694.50;110165;1272;21998;-80
2022/01/04 09:51:00;;;;;;;39.30;34.50;;;;;;;8.14;75.26;98693.41;110078;1273;22288;-79
2022/01/04 09:53:34;;;;;;;49.70;39.70;;;;;;;8.16;75.23;98699.63;110066;1273;22349;-80
2022/01/04 09:56:04;;;;;;;74.30;57.00;;;;;;;8.18;75.37;98694.00;110124;1273;21977;-79
2022/01/04 09:58:34;;;;;;;55.50;49.70;;;;;;;8.23;75.50;98686.11;109981;1276;21984;-79
2022/01/04 10:01:04;;;;;;;63.20;47.70;;;;;;;8.30;75.39;98682.67;110061;1273;22416;-79
2022/01/04 10:03:37;;;;;;;59.40;46.50;;;;;;;8.36;75.24;98684.09;109942;1279;22001;-79
2022/01/04 10:06:15;;;;;;;63.60;54.00;;;;;;;8.34;75.11;98672.89;109975;1279;21976;-80
2022/01/04 10:09:03;;;;;;;55.00;49.00;;;;;;;8.35;75.01;98656.35;109948;1279;21945;-81
2022/01/04 10:11:43;;;;;;;61.40;52.70;;;;;;;8.30;74.78;98653.89;109984;1279;21908;-79
2022/01/04 10:14:30;;;;;;;50.80;45.60;;;;;;;8.27;74.87;98654.65;109918;1279;22347;-79
2022/01/04 10:17:06;;;;;;;52.10;46.80;;;;;;;8.27;74.94;98653.70;110091;1273;21973;-79
2022/01/04 10:19:40;;;;;;;53.50;47.80;;;;;;;8.29;74.96;98647.67;109925;1274;21956;-79
2022/01/04 10:22:32;;;;;;;48.80;43.70;;;;;;;8.31;75.16;98637.62;110016;1273;21997;-78
2022/01/04 10:25:02;;;;;;;43.30;38.90;;;;;;;8.37;75.11;98642.36;109948;1276;22349;-79
2022/01/04 10:27:39;;;;;;;35.30;31.60;;;;;;;8.37;75.10;98637.42;109960;1276;21919;-79
2022/01/04 10:30:44;;;;;;;36.00;32.20;;;;;;;8.33;74.97;98632.93;109806;1283;21904;-78
2022/01/04 10:33:22;;;;;;;42.30;34.50;;;;;;;8.32;75.18;98629.12;109397;1288;21889;-79
2022/01/04 10:35:56;;;;;;;33.90;29.00;;;;;;;8.26;75.36;98611.13;109276;1288;21922;-79
2022/01/04 10:38:36;;;;;;;34.40;30.70;;;;;;;8.26;75.26;98604.37;109207;1289;21862;-80
2022/01/04 10:41:15;;;;;;;36.30;31.00;;;;;;;8.26;75.35;98604.29;109316;1283;309900;-79
2022/01/04 10:43:52;;;;;;;28.80;25.70;;;;;;;8.26;75.41;98595.98;109732;1285;21827;-79
2022/01/04 10:46:42;;;;;;;30.20;24.90;;;;;;;8.29;75.48;98597.05;109607;1286;21785;-79
2022/01/04 10:49:19;;;;;;;23.90;21.40;;;;;;;8.27;75.36;98593.45;109865;1282;21947;-79
2022/01/04 10:52:10;;;;;;;25.80;20.40;;;;;;;8.24;75.50;98589.87;109958;1282;21950;-80
2022/01/04 10:54:39;;;;;;;22.00;19.60;;;;;;;8.22;75.51;98586.14;109562;1286;21911;-80
2022/01/04 10:57:11;;;;;;;27.80;24.90;;;;;;;8.19;75.56;98580.63;109564;1286;21843;-80
2022/01/04 10:59:41;;;;;;;31.00;27.40;;;;;;;8.16;75.68;98573.56;109115;1289;21932;-80
2022/01/04 11:02:10;;;;;;;35.70;28.70;;;;;;;8.15;75.93;98568.10;109151;1287;21929;-79
2022/01/04 11:04:40;;;;;;;24.10;20.50;;;;;;;8.17;76.05;98562.56;109459;1282;21815;-80
2022/01/04 11:07:09;;;;;;;39.40;27.50;;;;;;;8.16;76.00;98558.76;109447;1289;21887;-80
2022/01/04 11:09:39;;;;;;;40.80;31.90;;;;;;;8.13;76.08;98555.02;109627;1281;21856;-80
2022/01/04 11:12:10;;;;;;;47.70;33.60;;;;;;;8.14;76.24;98549.69;109825;1279;21873;-80
2022/01/04 11:14:42;;;;;;;23.80;20.20;;;;;;;8.14;76.28;98549.72;109575;1283;21909;-80
2022/01/04 11:17:12;;;;;;;23.50;20.90;;;;;;;8.10;76.29;98539.39;109832;1282;21945;-80
2022/01/04 11:19:42;;;;;;;47.60;39.30;;;;;;;8.09;76.40;98532.66;109911;1282;22043;-80
2022/01/04 11:22:11;;;;;;;52.10;44.40;;;;;;;8.07;76.55;98528.61;109923;1282;21882;-80
2022/01/04 11:24:46;;;;;;;28.30;24.00;;;;;;;8.11;76.77;98519.61;109961;1279;21972;-81
2022/01/04 11:27:16;;;;;;;33.90;30.40;;;;;;;8.12;76.80;98513.87;109997;1279;21925;-80
2022/01/04 11:29:49;;;;;;;35.10;31.30;;;;;;;8.12;76.93;98508.41;110034;1276;22080;-80
2022/01/04 11:32:21;;;;;;;49.40;36.80;;;;;;;8.13;77.06;98499.30;110065;1276;21963;-80
2022/01/04 11:35:16;;;;;;;32.90;25.70;;;;;;;8.17;77.08;98493.98;110014;1275;21936;-80
2022/01/04 11:37:56;;;;;;;34.40;24.10;;;;;;;8.16;77.02;98479.85;110087;1276;22223;-80
2022/01/04 11:40:41;;;;;;;24.70;20.60;;;;;;;8.12;77.12;98472.56;110331;1269;21925;-80
2022/01/04 11:43:34;;;;;;;51.60;34.30;;;;;;;8.17;77.45;98463.18;110033;1275;22289;-80
2022/01/04 11:46:06;;;;;;;88.60;65.40;;;;;;;8.15;77.58;98446.06;109971;1278;22377;-81
2022/01/04 11:48:41;;;;;;;102.20;70.60;;;;;;;8.18;77.74;98438.64;109973;1278;22379;-80
2022/01/04 11:51:28;;;;;;;64.90;53.40;;;;;;;8.26;77.89;98428.92;109947;1278;21900;-80
2022/01/04 11:54:20;;;;;;;48.00;43.20;;;;;;;8.34;77.88;98420.48;109858;1284;21868;-81
2022/01/04 11:56:57;;;;;;;21.30;17.70;;;;;;;8.37;77.76;98414.14;109477;1289;22302;-81
2022/01/04 11:59:43;;;;;;;18.60;16.60;;;;;;;8.35;77.52;98409.52;108781;1292;21884;-82
2022/01/04 12:02:43;;;;;;;22.70;19.70;;;;;;;8.27;77.44;98398.73;109050;1289;22321;-81
2022/01/04 12:05:30;;;;;;;19.10;17.10;;;;;;;8.22;77.58;98398.38;109713;1284;22323;-81
2022/01/04 12:08:17;;;;;;;22.40;18.10;;;;;;;8.21;77.89;98394.03;109850;1284;21838;-81
2022/01/04 12:10:50;;;;;;;20.50;16.00;;;;;;;8.24;77.98;98382.42;109736;1284;22264;-80
2022/01/04 12:13:23;;;;;;;17.90;15.80;;;;;;;8.23;77.90;98370.69;109857;1282;21938;-81
2022/01/04 12:16:03;;;;;;;24.50;21.20;;;;;;;8.20;77.92;98362.08;109872;1279;22372;-81
2022/01/04 12:18:56;;;;;;;28.80;24.90;;;;;;;8.18;78.02;98354.82;110048;1276;21870;-81
2022/01/04 12:21:30;;;;;;;29.10;26.00;;;;;;;8.18;78.25;98348.06;109894;1280;21827;-81
2022/01/04 12:24:01;;;;;;;24.90;21.90;;;;;;;8.21;78.50;98341.23;109819;1285;21878;-80
2022/01/04 12:26:34;;;;;;;27.90;24.00;;;;;;;8.28;78.54;98340.26;109869;1283;21984;-80
2022/01/04 12:29:09;;;;;;;26.70;21.60;;;;;;;8.33;78.48;98343.83;109805;1285;21847;-81
2022/01/04 12:31:54;;;;;;;24.90;22.20;;;;;;;8.35;78.35;98330.70;109987;1279;21896;-82
2022/01/04 12:34:30;;;;;;;35.10;30.90;;;;;;;8.37;78.32;98320.67;109998;1279;21827;-81
2022/01/04 12:37:04;;;;;;;60.80;54.40;;;;;;;8.36;78.29;98312.98;109829;1283;21935;-81
2022/01/04 12:39:41;;;;;;;34.10;30.80;;;;;;;8.34;78.16;98313.67;109054;1290;21850;-80
2022/01/04 12:42:15;;;;;;;32.80;29.50;;;;;;;8.27;78.12;98308.66;108577;1292;21898;-80
2022/01/04 12:44:53;;;;;;;27.00;24.30;;;;;;;8.26;78.31;98301.73;109093;1290;21820;-81
2022/01/04 12:47:23;;;;;;;25.80;23.20;;;;;;;8.26;78.35;98302.58;109087;1290;22040;-80
2022/01/04 12:49:53;;;;;;;30.60;27.40;;;;;;;8.26;78.33;98305.73;108880;1290;21890;-80
2022/01/04 12:52:23;;;;;;;30.20;27.20;;;;;;;8.26;78.39;98310.06;108790;1290;21871;-80
2022/01/04 12:54:53;;;;;;;29.80;27.00;;;;;;;8.30;78.43;98312.41;108810;1289;22368;-81